Time;durP1;ratioP1;P1;durP2;ratioP2;P2;SDS_P1;SDS_P2;PMS_P1;PMS_P2;Temp;Humidity;BMP_temperature;BMP_pressure;BME280_temperature;BME280_humidity;BME280_pressure;Samples;Min_cycle;Max_cycle;Signal;HPM_P1;HPM_P2
2022/03/18 00:01:58;;;;;;;;;33.33;30.33;;;;;8.46;65.67;102972.16;5074285;28;45226;-80
2022/03/18 00:04:24;;;;;;;;;35.00;32.50;;;;;9.01;65.94;103076.16;5091568;28;45609;-76
2022/03/18 00:06:49;;;;;;;;;33.75;29.75;;;;;8.49;65.67;102989.84;5092699;28;45107;-80
2022/03/18 00:09:14;;;;;;;;;34.50;29.25;;;;;8.53;65.68;103003.31;5092019;27;45164;-85
2022/03/18 00:11:40;;;;;;;;;33.50;30.50;;;;;8.38;66.00;102961.91;5092066;27;45250;-78
2022/03/18 00:14:05;;;;;;;;;34.67;33.33;;;;;8.95;65.62;103072.09;5074828;28;45099;-79
2022/03/18 00:16:30;;;;;;;;;29.25;29.00;;;;;8.40;65.57;102976.94;5093316;28;45119;-79
2022/03/18 00:18:58;;;;;;;;;30.67;29.00;;;;;8.41;65.36;102989.22;5092740;28;45761;-86
2022/03/18 00:21:25;;;;;;;;;32.00;30.75;;;;;8.37;65.65;102986.25;5074859;28;45905;-78
2022/03/18 00:23:50;;;;;;;;;29.50;28.75;;;;;8.44;65.22;103006.91;5090351;28;45215;-81
2022/03/18 00:26:16;;;;;;;;;28.00;26.75;;;;;8.28;65.35;102981.19;5092870;27;45307;-84
2022/03/18 00:28:41;;;;;;;;;28.33;27.67;;;;;8.84;65.31;103075.59;5074129;28;47339;-77
2022/03/18 00:31:08;;;;;;;;;30.25;26.25;;;;;8.82;65.27;103083.38;5092460;27;45078;-83
2022/03/18 00:33:34;;;;;;;;;33.50;30.00;;;;;8.40;65.35;103010.09;5093018;28;45190;-79
2022/03/18 00:35:59;;;;;;;;;30.00;29.50;;;;;8.77;65.13;103061.09;5093065;28;45229;-78
2022/03/18 00:38:24;;;;;;;;;28.00;27.33;;;;;8.23;65.22;102986.06;5090539;28;45797;-80
2022/03/18 00:40:50;;;;;;;;;33.33;31.33;;;;;8.34;65.27;103004.31;5091141;28;45101;-77
2022/03/18 00:43:16;;;;;;;;;33.50;30.25;;;;;8.20;65.35;102985.78;5092991;28;45111;-85
2022/03/18 00:45:42;;;;;;;;;24.25;21.00;;;;;8.09;65.58;102965.69;5074106;28;45166;-86
2022/03/18 00:53:35;;;;;;;;;27.50;25.50;;;;;8.19;65.49;103001.41;5091140;27;45338;-79
2022/03/18 00:56:01;;;;;;;;;30.50;28.25;;;;;8.19;65.51;102990.91;5092241;27;45222;-86
2022/03/18 00:58:26;;;;;;;;;31.50;27.75;;;;;8.65;65.54;103076.75;5091875;27;45816;-78
2022/03/18 01:00:52;;;;;;;;;29.50;28.50;;;;;8.04;65.26;102982.75;5092468;27;45079;-79
2022/03/18 01:03:17;;;;;;;;;31.25;29.50;;;;;8.04;65.55;102976.59;5092106;27;45586;-84
2022/03/18 01:05:42;;;;;;;;;33.50;29.75;;;;;8.14;65.47;103007.97;5091673;27;45138;-82
2022/03/18 01:08:08;;;;;;;;;34.50;29.50;;;;;8.19;65.50;103009.25;5087594;27;45655;-86
2022/03/18 01:10:34;;;;;;;;;29.25;27.00;;;;;8.08;65.55;102992.69;5091711;27;45141;-77
2022/03/18 01:12:59;;;;;;;;;32.75;28.50;;;;;8.02;65.44;102979.97;5092146;27;44903;-80
2022/03/18 01:15:24;;;;;;;;;30.75;27.75;;;;;8.05;65.43;102995.03;5092354;27;45123;-84
2022/03/18 01:17:50;;;;;;;;;32.75;30.00;;;;;8.07;65.53;103008.25;5091995;28;45509;-79
2022/03/18 01:20:15;;;;;;;;;27.67;27.67;;;;;8.52;65.77;103100.16;5091894;28;44976;-82
2022/03/18 01:22:41;;;;;;;;;31.75;29.25;;;;;8.52;65.62;103094.91;5091104;27;45517;-85
2022/03/18 01:25:06;;;;;;;;;33.25;27.75;;;;;7.92;65.67;102992.22;5091681;28;45112;-83
2022/03/18 01:27:32;;;;;;;;;32.50;29.00;;;;;7.89;65.70;102984.13;5091760;28;45062;-86
2022/03/18 01:29:57;;;;;;;;;29.50;28.50;;;;;7.87;65.47;102994.44;5091960;28;44877;-79
2022/03/18 01:32:23;;;;;;;;;27.00;26.50;;;;;8.15;65.85;103030.75;5091792;28;45003;-77
2022/03/18 01:34:48;;;;;;;;;29.25;27.50;;;;;7.88;65.79;102984.88;5091675;27;45144;-82
2022/03/18 01:37:16;;;;;;;;;29.50;26.00;;;;;7.85;65.81;102990.81;5090849;28;45346;-77
2022/03/18 01:39:41;;;;;;;;;31.00;29.00;;;;;7.83;65.76;102989.78;5091742;28;45436;-81
2022/03/18 01:42:07;;;;;;;;;29.25;27.50;;;;;8.27;65.94;103071.97;5091251;28;45135;-84
2022/03/18 01:44:43;;;;;;;;;33.25;28.75;;;;;8.36;65.84;103090.16;5091465;28;45133;-82
2022/03/18 01:47:10;;;;;;;;;31.50;27.00;;;;;7.96;66.12;103015.25;5088535;28;46764;-76
2022/03/18 01:49:35;;;;;;;;;33.00;29.50;;;;;7.85;65.80;103000.38;5091035;27;44928;-86
2022/03/18 01:52:02;;;;;;;;;36.75;34.25;;;;;7.94;65.98;103019.44;5090550;28;45013;-76
2022/03/18 01:57:17;;;;;;;;;32.25;26.00;;;;;8.18;65.85;103059.81;5091269;28;45197;-79
2022/03/18 01:59:42;;;;;;;;;33.25;26.00;;;;;8.33;65.70;103079.41;5091308;27;45472;-83
2022/03/18 02:02:08;;;;;;;;;32.50;30.00;;;;;8.33;65.89;103086.34;5091051;27;45119;-78
2022/03/18 02:04:35;;;;;;;;;31.75;28.00;;;;;7.80;65.71;103014.78;5091016;27;45159;-84
2022/03/18 02:07:02;;;;;;;;;38.25;33.75;;;;;8.11;65.79;103052.22;5090539;28;45481;-82
2022/03/18 02:09:29;;;;;;;;;30.25;27.25;;;;;7.93;65.68;103046.41;5090332;27;45210;-78
2022/03/18 02:11:55;;;;;;;;;36.50;33.50;;;;;7.75;65.44;102997.00;5073044;28;45343;-83
2022/03/18 02:14:31;;;;;;;;;34.75;33.25;;;;;8.33;65.43;103112.56;5090972;28;45123;-84
2022/03/18 02:16:56;;;;;;;;;34.50;33.75;;;;;7.75;65.49;103009.16;5085400;27;45224;-79
2022/03/18 02:19:22;;;;;;;;;32.00;29.75;;;;;7.72;65.49;102999.34;5087285;27;45294;-85
2022/03/18 02:21:52;;;;;;;;;35.75;32.25;;;;;7.72;65.30;102994.09;5090838;28;45237;-85
2022/03/18 02:24:18;;;;;;;;;35.25;32.50;;;;;7.78;65.51;103001.53;5090485;28;45142;-84
2022/03/18 02:26:47;;;;;;;;;31.25;29.25;;;;;7.72;65.43;102999.34;5090213;28;45375;-84
2022/03/18 02:29:12;;;;;;;;;38.25;31.00;;;;;8.25;65.71;103085.72;5090491;28;45345;-85
2022/03/18 02:31:38;;;;;;;;;44.00;37.25;;;;;8.26;65.21;103093.69;5090943;28;45174;-77
2022/03/18 02:34:03;;;;;;;;;34.00;31.25;;;;;8.24;65.44;103090.03;5091328;27;44851;-82
2022/03/18 02:36:29;;;;;;;;;34.75;32.25;;;;;7.62;65.48;102995.84;5069603;28;48076;-78
2022/03/18 02:38:54;;;;;;;;;38.50;34.75;;;;;7.65;65.22;102996.13;5090565;28;45148;-83
2022/03/18 02:41:19;;;;;;;;;37.00;33.75;;;;;7.62;65.13;102990.63;5090539;28;45105;-82
2022/03/18 02:43:46;;;;;;;;;40.25;37.50;;;;;7.77;65.27;103018.03;5070415;28;45311;-79
2022/03/18 02:46:11;;;;;;;;;37.25;33.25;;;;;7.73;65.31;103016.91;5070556;28;45970;-79
2022/03/18 02:48:37;;;;;;;;;37.25;32.25;;;;;7.45;65.36;102969.22;5090141;28;44910;-84
2022/03/18 02:51:02;;;;;;;;;134.50;125.25;;;;;8.14;65.33;103086.56;5090311;27;45353;-77
2022/03/18 02:53:27;;;;;;;;;150.25;137.75;;;;;8.13;65.39;103088.25;5090381;28;45367;-82
2022/03/18 02:55:54;;;;;;;;;176.33;154.67;;;;;7.42;65.37;102962.81;5090585;28;45169;-84
2022/03/18 02:58:19;;;;;;;;;190.00;169.00;;;;;7.54;65.28;102982.16;5090024;27;44940;-82
2022/03/18 03:00:45;;;;;;;;;187.00;166.00;;;;;7.55;65.36;102986.59;5071738;28;45120;-77
2022/03/18 03:03:10;;;;;;;;;164.00;143.50;;;;;7.63;65.19;103011.66;5090739;28;45094;-78
2022/03/18 03:08:19;;;;;;;;;95.25;81.75;;;;;7.58;65.17;103007.75;5089289;27;45071;-83
2022/03/18 03:10:45;;;;;;;;;62.50;50.50;;;;;7.68;65.08;103028.66;5089982;27;45056;-76
2022/03/18 03:13:10;;;;;;;;;46.75;38.00;;;;;7.46;65.35;102988.44;5090133;28;45283;-81
2022/03/18 03:15:38;;;;;;;;;40.00;36.00;;;;;8.00;65.07;103088.03;5090455;27;45871;-77
2022/03/18 03:18:03;;;;;;;;;43.25;38.00;;;;;7.80;65.29;103059.28;5093476;27;45699;-75
2022/03/18 03:20:29;;;;;;;;;33.75;32.75;;;;;7.35;65.44;102984.03;5093786;27;45145;-75
2022/03/18 03:22:54;;;;;;;;;36.25;33.25;;;;;7.96;65.19;103096.41;5093463;27;45191;-76
2022/03/18 03:25:19;;;;;;;;;44.00;37.50;;;;;7.60;64.86;103035.00;5092918;27;45937;-76
2022/03/18 03:27:45;;;;;;;;;42.00;37.00;;;;;7.49;65.03;103022.72;5093458;28;44982;-76
2022/03/18 03:30:11;;;;;;;;;40.00;36.00;;;;;7.64;65.10;103049.25;5093889;28;45256;-76
2022/03/18 03:32:37;;;;;;;;;42.75;37.25;;;;;7.53;64.96;103037.88;5093220;27;45183;-76
2022/03/18 03:35:05;;;;;;;;;36.50;34.00;;;;;7.65;65.23;103065.06;5093474;28;45219;-75
2022/03/18 03:37:30;;;;;;;;;45.50;36.50;;;;;7.94;64.94;103111.09;5092044;27;45393;-75
2022/03/18 03:39:55;;;;;;;;;41.75;35.75;;;;;7.75;65.08;103070.28;5082622;27;45171;-76
2022/03/18 03:42:21;;;;;;;;;38.00;34.67;;;;;7.91;64.72;103111.75;5080510;28;45084;-75
2022/03/18 03:44:47;;;;;;;;;43.50;38.00;;;;;7.36;64.78;103027.69;5089087;28;45224;-75
2022/03/18 03:47:13;;;;;;;;;39.75;35.75;;;;;7.38;64.91;103031.34;5093578;28;45273;-76
2022/03/18 03:49:39;;;;;;;;;40.75;35.75;;;;;7.46;64.55;103048.63;5093346;28;44943;-77
2022/03/18 03:52:04;;;;;;;;;38.33;35.00;;;;;7.86;64.68;103113.06;5092968;27;45156;-85
2022/03/18 03:54:29;;;;;;;;;37.00;31.50;;;;;7.39;64.88;103034.13;5092732;28;45139;-79
2022/03/18 03:56:55;;;;;;;;;42.25;37.25;;;;;7.41;65.10;103034.25;5093155;28;45326;-77
2022/03/18 03:59:23;;;;;;;;;44.25;37.00;;;;;7.36;65.16;103032.94;5093442;28;44996;-83
2022/03/18 04:01:49;;;;;;;;;45.25;37.75;;;;;7.24;65.24;103018.03;5092085;28;45331;-76
2022/03/18 04:04:14;;;;;;;;;46.25;37.75;;;;;7.32;65.08;103044.84;5092912;27;45388;-79
2022/03/18 04:06:39;;;;;;;;;42.50;38.00;;;;;7.31;64.82;103047.31;5092720;27;45071;-76
2022/03/18 04:09:05;;;;;;;;;43.33;38.33;;;;;7.45;64.76;103066.03;5074019;28;45351;-76
2022/03/18 04:11:30;;;;;;;;;43.50;38.75;;;;;7.01;65.17;102998.56;5092911;28;44940;-81
2022/03/18 04:13:56;;;;;;;;;50.50;40.50;;;;;7.21;65.04;103049.16;5092870;27;45584;-77
2022/03/18 04:16:21;;;;;;;;;40.00;36.00;;;;;7.39;64.92;103075.03;5092639;27;45085;-86
2022/03/18 04:18:47;;;;;;;;;45.25;37.25;;;;;7.10;65.21;103034.25;5088541;27;45016;-78
2022/03/18 04:21:14;;;;;;;;;48.00;40.00;;;;;7.68;65.31;103138.59;5082102;27;45199;-78
2022/03/18 04:23:39;;;;;;;;;42.75;37.25;;;;;7.13;65.25;103041.44;5086928;28;45511;-84
2022/03/18 04:26:05;;;;;;;;;40.00;36.75;;;;;7.09;65.10;103031.50;5088155;28;45255;-77
2022/03/18 04:28:30;;;;;;;;;46.00;39.67;;;;;7.08;65.21;103040.13;5091875;27;45351;-76
2022/03/18 04:30:55;;;;;;;;;25.50;24.25;;;;;7.63;65.26;103139.00;5087877;28;45060;-80
2022/03/18 04:33:21;;;;;;;;;51.67;40.00;;;;;7.01;65.05;103029.94;5078534;28;47118;-84
2022/03/18 04:35:46;;;;;;;;;49.50;41.50;;;;;7.41;65.31;103105.78;5085336;28;45238;-79
2022/03/18 04:38:12;;;;;;;;;51.00;40.50;;;;;7.56;65.34;103142.81;5092837;28;45178;-84
2022/03/18 04:40:37;;;;;;;;;45.67;38.00;;;;;7.05;65.28;103061.72;5074215;28;45017;-81
2022/03/18 04:43:02;;;;;;;;;43.75;39.00;;;;;7.09;65.25;103083.78;5090877;27;45947;-77
2022/03/18 04:45:28;;;;;;;;;43.00;38.25;;;;;7.19;65.38;103112.56;5092705;28;45071;-84
2022/03/18 04:47:54;;;;;;;;;43.50;40.00;;;;;6.98;65.52;103075.03;5092317;28;45070;-82
2022/03/18 04:50:20;;;;;;;;;45.50;37.25;;;;;7.47;65.24;103158.63;5092495;27;45023;-84
2022/03/18 04:52:45;;;;;;;;;40.25;37.50;;;;;7.45;65.24;103175.00;5092226;28;46111;-76
2022/03/18 04:55:11;;;;;;;;;37.67;34.67;;;;;7.27;65.24;103137.69;5092186;28;45099;-81
2022/03/18 04:57:36;;;;;;;;;34.25;32.00;;;;;6.82;65.23;103070.19;5092023;27;45103;-80
2022/03/18 05:00:04;;;;;;;;;35.25;33.75;;;;;7.42;65.40;103169.50;5079590;28;45113;-82
2022/03/18 05:02:30;;;;;;;;;44.50;35.75;;;;;6.83;65.24;103068.47;5082358;28;45264;-85
2022/03/18 05:04:55;;;;;;;;;35.75;32.75;;;;;6.99;65.46;103108.22;5090152;27;45415;-78
2022/03/18 05:07:21;;;;;;;;;33.25;29.75;;;;;6.87;65.19;103091.50;5091300;28;45187;-77
2022/03/18 05:09:47;;;;;;;;;34.00;30.25;;;;;7.34;65.33;103170.50;5091611;28;45172;-81
2022/03/18 05:12:14;;;;;;;;;41.25;35.00;;;;;6.72;65.24;103064.94;5092100;28;45417;-78
2022/03/18 05:14:40;;;;;;;;;39.00;33.75;;;;;6.84;65.39;103086.91;5092269;28;45387;-84
2022/03/18 05:17:10;;;;;;;;;36.00;32.75;;;;;6.75;65.45;103082.56;5092151;28;45083;-85
2022/03/18 05:19:37;;;;;;;;;28.25;25.00;;;;;6.71;65.26;103084.03;5091725;27;45256;-80
2022/03/18 05:22:06;;;;;;;;;36.50;31.25;;;;;6.77;65.30;103101.94;5091647;28;46128;-83
2022/03/18 05:24:31;;;;;;;;;32.00;29.25;;;;;7.29;65.62;103205.81;5091961;28;45539;-85
2022/03/18 05:26:57;;;;;;;;;35.75;29.00;;;;;6.86;65.47;103123.66;5091564;28;45163;-84
2022/03/18 05:29:25;;;;;;;;;31.25;29.00;;;;;6.89;65.34;103132.66;5072045;28;45304;-83
2022/03/18 05:31:50;;;;;;;;;34.25;32.50;;;;;6.94;65.35;103151.34;5091418;28;45645;-77
2022/03/18 05:34:16;;;;;;;;;30.25;27.00;;;;;6.77;65.18;103130.69;5091484;28;45153;-76
2022/03/18 05:36:42;;;;;;;;;35.00;31.25;;;;;6.57;65.29;103095.88;5091359;27;44953;-76
2022/03/18 05:39:07;;;;;;;;;31.00;29.50;;;;;6.69;65.18;103116.91;5072713;28;45379;-76
2022/03/18 05:41:33;;;;;;;;;31.00;29.25;;;;;7.14;65.55;103214.19;5091457;28;45666;-76
2022/03/18 05:43:59;;;;;;;;;31.25;27.25;;;;;6.63;65.39;103125.13;5091425;28;45349;-76
2022/03/18 05:46:24;;;;;;;;;32.25;30.00;;;;;6.69;65.21;103143.97;5090605;27;45160;-75
2022/03/18 05:48:50;;;;;;;;;33.50;31.75;;;;;6.40;65.33;103090.81;5091406;27;45254;-75
2022/03/18 05:51:16;;;;;;;;;28.25;24.25;;;;;6.61;65.43;103124.09;5091093;28;45578;-76
2022/03/18 05:53:41;;;;;;;;;44.00;36.25;;;;;6.61;65.53;103137.16;5090403;28;45282;-75
2022/03/18 05:58:51;;;;;;;;;34.00;31.00;;;;;7.08;65.21;103215.31;5077871;28;45171;-75
2022/03/18 06:01:17;;;;;;;;;34.00;31.75;;;;;6.59;65.19;103133.47;5090975;28;45151;-77
2022/03/18 06:03:42;;;;;;;;;38.50;36.50;;;;;6.57;65.31;103131.53;5090783;27;45327;-76
2022/03/18 06:06:08;;;;;;;;;40.25;37.00;;;;;6.52;65.22;103119.75;5091414;28;45246;-78
2022/03/18 06:14:01;;;;;;;;;34.50;31.75;;;;;6.56;65.28;103142.75;5090953;28;45165;-77
2022/03/18 06:16:26;;;;;;;;;38.33;37.00;;;;;6.64;65.41;103167.84;5090453;28;45195;-78
2022/03/18 06:18:52;;;;;;;;;35.50;33.25;;;;;7.01;65.18;103241.72;5091572;28;45086;-83
2022/03/18 06:21:17;;;;;;;;;29.50;28.25;;;;;6.33;65.17;103125.94;5091329;28;45430;-79
2022/03/18 06:23:43;;;;;;;;;31.00;28.67;;;;;6.99;65.31;103241.56;5090153;28;45194;-82
2022/03/18 06:26:09;;;;;;;;;29.00;27.25;;;;;6.99;65.22;103246.78;5090802;28;45090;-83
2022/03/18 06:28:34;;;;;;;;;32.00;29.50;;;;;6.49;65.03;103156.94;5090935;28;45349;-82
2022/03/18 06:31:00;;;;;;;;;32.50;27.50;;;;;6.45;64.86;103147.00;5089706;27;45299;-78
2022/03/18 06:33:29;;;;;;;;;30.50;24.75;;;;;6.65;64.88;103182.75;5090926;28;44988;-82
2022/03/18 06:35:54;;;;;;;;;32.75;28.75;;;;;6.98;65.22;103242.34;5082210;27;45155;-85
2022/03/18 06:38:19;;;;;;;;;24.50;22.75;;;;;7.01;64.97;103237.41;5065235;27;45494;-83
2022/03/18 06:40:45;;;;;;;;;30.00;27.50;;;;;6.45;64.99;103145.34;5064632;27;45447;-77
2022/03/18 06:43:10;;;;;;;;;29.75;26.00;;;;;6.43;64.99;103154.72;5067401;28;45397;-83
2022/03/18 06:45:35;;;;;;;;;30.25;29.50;;;;;6.60;64.93;103179.75;5065347;27;45457;-76
2022/03/18 06:48:01;;;;;;;;;28.00;24.67;;;;;6.60;65.11;103174.53;5069102;28;45374;-78
2022/03/18 06:50:27;;;;;;;;;25.00;23.75;;;;;6.94;65.05;103227.16;5069372;28;46069;-85
2022/03/18 06:52:52;;;;;;;;;32.25;25.25;;;;;7.05;64.75;103242.13;5074851;27;45574;-85
2022/03/18 06:55:17;;;;;;;;;29.25;26.50;;;;;6.49;64.82;103151.72;5075631;28;45299;-84
2022/03/18 06:57:43;;;;;;;;;36.00;30.50;;;;;6.55;64.45;103161.81;5070768;28;45491;-78
2022/03/18 07:00:10;;;;;;;;;28.00;27.00;;;;;6.70;64.46;103185.03;5073759;28;46184;-83
2022/03/18 07:02:35;;;;;;;;;32.50;31.25;;;;;6.59;64.47;103167.44;5071984;27;45828;-81
2022/03/18 07:05:01;;;;;;;;;24.25;24.00;;;;;6.66;64.58;103171.53;5081751;27;45291;-78
2022/03/18 07:07:26;;;;;;;;;23.50;22.00;;;;;7.02;64.49;103228.78;5088531;27;45638;-86
2022/03/18 07:09:52;;;;;;;;;28.75;28.00;;;;;6.73;64.12;103166.06;5086750;27;45221;-88
2022/03/18 07:12:17;;;;;;;;;29.75;28.00;;;;;6.65;63.87;103143.56;5091957;28;45136;-85
2022/03/18 07:14:42;;;;;;;;;29.50;26.00;;;;;6.59;64.24;103125.63;5091122;28;45180;-86
2022/03/18 07:19:52;;;;;;;;;28.50;26.75;;;;;6.53;63.84;103129.41;5076586;27;45135;-85
2022/03/18 07:22:18;;;;;;;;;23.75;22.25;;;;;6.67;63.83;103128.94;5073044;28;45513;-89
2022/03/18 07:24:43;;;;;;;;;23.50;22.50;;;;;6.67;63.62;103135.09;5082388;28;45691;-83
2022/03/18 07:27:09;;;;;;;;;24.67;23.00;;;;;6.75;63.17;103168.81;5086510;28;45091;-85
2022/03/18 07:29:34;;;;;;;;;27.50;25.50;;;;;6.85;62.94;103166.25;5083316;28;45643;-84
2022/03/18 07:32:00;;;;;;;;;26.25;24.50;;;;;6.73;62.96;103130.41;5087418;28;45114;-87
2022/03/18 07:34:25;;;;;;;;;28.50;24.00;;;;;6.79;62.96;103134.31;5078916;28;45257;-80
2022/03/18 07:36:51;;;;;;;;;24.00;22.50;;;;;7.22;62.83;103202.69;5074170;28;45032;-89
2022/03/18 07:39:17;;;;;;;;;32.50;29.50;;;;;7.42;62.96;103245.38;5093275;28;45659;-82
2022/03/18 07:41:42;;;;;;;;;27.00;24.00;;;;;7.02;62.57;103155.56;5082401;28;45257;-78
2022/03/18 07:44:09;;;;;;;;;22.00;19.25;;;;;7.05;62.47;103163.69;5086712;28;45371;-84
2022/03/18 07:46:34;;;;;;;;;20.75;19.50;;;;;7.49;62.44;103226.81;5093132;27;45233;-84
2022/03/18 07:49:00;;;;;;;;;29.50;24.75;;;;;7.00;62.42;103130.09;5093347;27;45546;-81
2022/03/18 07:51:25;;;;;;;;;29.00;21.25;;;;;7.05;62.27;103152.31;5093883;27;45238;-88
2022/03/18 07:53:51;;;;;;;;;24.00;22.00;;;;;7.41;62.22;103207.81;5082450;28;45126;-76
2022/03/18 07:56:16;;;;;;;;;23.00;22.00;;;;;7.65;62.14;103237.81;5086441;28;45638;-76
2022/03/18 07:58:42;;;;;;;;;23.25;20.25;;;;;7.69;61.68;103237.31;5091048;28;45504;-81
2022/03/18 08:01:07;;;;;;;;;25.00;22.25;;;;;7.14;61.62;103140.97;5086043;27;45176;-87
2022/03/18 08:03:33;;;;;;;;;26.25;22.50;;;;;7.34;61.73;103171.47;5086301;27;45023;-88
2022/03/18 08:05:59;;;;;;;;;22.00;20.25;;;;;7.80;61.65;103250.41;5075765;28;45225;-88
2022/03/18 08:08:24;;;;;;;;;24.00;23.00;;;;;7.71;61.34;103217.38;5089220;27;45630;-87
2022/03/18 08:10:51;;;;;;;;;27.00;24.00;;;;;7.48;60.95;103178.78;5085596;28;45319;-88
2022/03/18 08:13:20;;;;;;;;;14.75;12.25;;;;;7.89;61.54;103261.66;5090750;28;45249;-86
2022/03/18 08:15:46;;;;;;;;;27.50;25.75;;;;;7.31;61.20;103145.03;5084789;28;44962;-76
2022/03/18 08:18:12;;;;;;;;;24.50;23.25;;;;;7.30;61.22;103131.81;5086279;28;45687;-86
2022/03/18 08:20:40;;;;;;;;;33.50;28.25;;;;;7.86;61.14;103230.88;5064965;27;45740;-79
2022/03/18 08:23:14;;;;;;;;;24.75;23.50;;;;;7.86;61.16;103220.41;5086049;27;45220;-88
2022/03/18 08:25:41;;;;;;;;;25.50;24.25;;;;;7.65;60.77;103193.31;5076102;27;45135;-88
2022/03/18 08:28:07;;;;;;;;;29.00;25.00;;;;;7.99;60.73;103243.31;5092149;27;45336;-87
2022/03/18 08:30:33;;;;;;;;;25.00;24.00;;;;;8.09;60.42;103255.50;5093274;27;45279;-89
2022/03/18 08:32:59;;;;;;;;;33.50;24.75;;;;;7.60;60.45;103159.69;5074033;27;44948;-75
2022/03/18 08:35:24;;;;;;;;;23.50;23.00;;;;;7.74;60.31;103193.19;5090303;27;45522;-88
2022/03/18 08:37:56;;;;;;;;;30.00;27.25;;;;;7.70;60.02;103186.78;5091568;27;45559;-89
2022/03/18 08:40:26;;;;;;;;;27.00;24.50;;;;;8.11;59.91;103252.22;5092357;27;45385;-88
2022/03/18 08:42:52;;;;;;;;;29.00;26.50;;;;;7.69;59.89;103181.41;5098423;27;45350;-88
2022/03/18 08:45:18;;;;;;;;;24.00;22.75;;;;;7.95;59.76;103202.84;5087838;28;45270;-77
2022/03/18 08:47:44;;;;;;;;;27.25;24.50;;;;;8.34;59.82;103255.84;5091134;27;45713;-75
2022/03/18 08:50:10;;;;;;;;;24.50;23.75;;;;;8.17;59.42;103215.13;5088091;27;46170;-76
2022/03/18 08:52:36;;;;;;;;;27.25;25.00;;;;;8.47;59.72;103258.72;5083459;27;45293;-79
2022/03/18 08:55:01;;;;;;;;;27.25;26.50;;;;;7.88;59.40;103152.44;5088789;28;45052;-86
2022/03/18 08:57:33;;;;;;;;;25.25;24.00;;;;;7.98;59.55;103156.00;5080141;28;46010;-77
2022/03/18 08:59:58;;;;;;;;;23.75;21.25;;;;;8.64;58.99;103262.78;5090149;28;45470;-83
2022/03/18 09:02:23;;;;;;;;;19.75;19.00;;;;;8.12;58.47;103157.13;5066377;28;45578;-83
2022/03/18 09:04:50;;;;;;;;;27.33;24.00;;;;;8.72;58.35;103251.22;5074908;27;45192;-81
2022/03/18 09:07:16;;;;;;;;;24.75;24.00;;;;;8.23;58.31;103161.56;5080733;28;45685;-76
2022/03/18 09:09:41;;;;;;;;;26.25;24.50;;;;;8.49;57.96;103199.50;5091535;28;45275;-77
2022/03/18 09:12:07;;;;;;;;;26.25;24.25;;;;;8.26;57.66;103151.31;5092148;28;45254;-76
2022/03/18 09:14:32;;;;;;;;;25.50;24.25;;;;;8.71;57.61;103225.75;5091540;27;45347;-77
2022/03/18 09:16:58;;;;;;;;;24.25;22.75;;;;;8.82;57.09;103237.13;5091180;27;45659;-77
2022/03/18 09:19:23;;;;;;;;;27.25;23.25;;;;;8.83;57.32;103238.97;5091498;28;45108;-77
2022/03/18 09:21:49;;;;;;;;;21.75;20.75;;;;;8.46;57.37;103176.56;5091311;28;45162;-78
2022/03/18 09:24:15;;;;;;;;;25.25;23.25;;;;;8.63;56.80;103209.44;5072153;28;45383;-77
2022/03/18 09:26:40;;;;;;;;;23.50;21.75;;;;;8.38;57.01;103141.00;5088542;28;45698;-76
2022/03/18 09:29:06;;;;;;;;;24.75;22.75;;;;;8.59;56.70;103174.97;5071314;28;45446;-76
2022/03/18 09:31:31;;;;;;;;;17.50;16.75;;;;;8.69;56.07;103178.47;5090091;27;45726;-76
2022/03/18 09:33:58;;;;;;;;;27.75;25.50;;;;;9.14;56.49;103269.53;5089770;28;45168;-78
2022/03/18 09:36:23;;;;;;;;;22.50;22.00;;;;;9.00;55.89;103239.53;5088180;27;45570;-76
2022/03/18 09:38:49;;;;;;;;;21.50;18.50;;;;;8.48;55.33;103126.94;5089532;27;45251;-77
2022/03/18 09:41:16;;;;;;;;;19.25;18.75;;;;;9.24;55.16;103260.69;5091578;28;45107;-77
2022/03/18 09:43:42;;;;;;;;;19.50;19.00;;;;;9.28;55.15;103260.13;5091700;28;45095;-76
2022/03/18 09:46:10;;;;;;;;;18.75;17.75;;;;;8.89;54.59;103189.66;5091809;28;45200;-76
2022/03/18 09:48:37;;;;;;;;;20.50;17.25;;;;;8.89;54.82;103181.78;5072963;28;45266;-76
2022/03/18 09:51:03;;;;;;;;;21.00;20.00;;;;;8.90;54.36;103171.41;5073386;28;45140;-76
2022/03/18 09:53:28;;;;;;;;;21.00;20.25;;;;;8.96;54.24;103174.50;5091007;28;45110;-76
2022/03/18 09:55:54;;;;;;;;;22.50;20.00;;;;;9.02;53.50;103177.66;5090032;28;45937;-77
2022/03/18 09:58:24;;;;;;;;;17.75;17.00;;;;;8.99;53.47;103159.03;5069741;28;45177;-76
2022/03/18 10:00:57;;;;;;;;;21.25;19.75;;;;;9.19;52.89;103189.47;5052825;28;44952;-75
2022/03/18 10:03:35;;;;;;;;;22.50;20.50;;;;;9.25;52.50;103176.81;5078892;28;45239;-76
2022/03/18 10:06:02;;;;;;;;;14.00;11.50;;;;;9.29;52.38;103163.16;5091116;28;45991;-75
2022/03/18 10:08:47;;;;;;;;;18.75;16.00;;;;;9.75;52.18;103234.06;5071982;28;45546;-77
2022/03/18 10:11:18;;;;;;;;;19.00;18.50;;;;;9.45;52.02;103161.72;5091895;28;45107;-77
2022/03/18 10:13:51;;;;;;;;;18.50;17.00;;;;;10.03;51.86;103261.69;5091417;28;44950;-77
2022/03/18 10:16:38;;;;;;;;;24.00;20.25;;;;;9.70;51.32;103186.44;5090816;28;45648;-78
2022/03/18 10:19:08;;;;;;;;;16.75;16.50;;;;;10.00;50.68;103224.69;5090821;27;44942;-76
2022/03/18 10:21:49;;;;;;;;;17.00;16.75;;;;;9.72;50.56;103166.50;5090262;28;44603;-77
2022/03/18 10:24:15;;;;;;;;;17.25;16.50;;;;;10.33;50.24;103249.09;5087895;27;45180;-76
2022/03/18 10:26:41;;;;;;;;;15.25;14.50;;;;;10.43;50.46;103243.72;5094153;27;45545;-77
2022/03/18 10:29:11;;;;;;;;;13.00;12.75;;;;;10.24;49.71;103199.38;5094874;28;44969;-77
2022/03/18 10:31:37;;;;;;;;;12.00;11.50;;;;;10.00;48.78;103139.69;5095077;28;45253;-79
2022/03/18 10:37:11;;;;;;;;;18.75;15.50;;;;;10.33;49.07;103163.25;5094848;28;45900;-86
2022/03/18 10:39:41;;;;;;;;;13.00;10.50;;;;;10.91;48.60;103236.75;5094620;27;45437;-77
2022/03/18 10:42:11;;;;;;;;;15.00;15.00;;;;;10.99;48.47;103232.97;5093779;27;45197;-81
2022/03/18 10:44:54;;;;;;;;;12.50;11.75;;;;;11.04;47.41;103245.66;5094638;27;45300;-88
2022/03/18 10:47:27;;;;;;;;;18.75;15.00;;;;;10.96;47.37;103211.69;5094790;28;45374;-90
2022/03/18 10:50:14;;;;;;;;;17.00;15.00;;;;;11.16;47.18;103231.53;5095240;28;45616;-89
2022/03/18 10:52:45;;;;;;;;;11.00;10.75;;;;;11.22;46.55;103222.34;5083070;28;45475;-90
2022/03/18 10:55:20;;;;;;;;;12.75;12.75;;;;;11.28;47.26;103224.50;5094655;28;45282;-87
2022/03/18 10:57:53;;;;;;;;;13.00;12.00;;;;;11.33;46.53;103231.06;5094475;27;45756;-90
2022/03/18 11:00:21;;;;;;;;;12.50;11.75;;;;;11.04;47.02;103157.91;5094626;28;45119;-87
2022/03/18 11:02:51;;;;;;;;;13.75;13.25;;;;;11.10;45.74;103147.81;5096300;27;45229;-87
2022/03/18 11:05:19;;;;;;;;;13.50;12.50;;;;;11.54;45.71;103210.56;5078452;28;45151;-88
2022/03/18 11:07:45;;;;;;;;;12.25;11.50;;;;;11.44;44.96;103172.16;5094617;28;45992;-83
2022/03/18 11:13:04;;;;;;;;;10.75;9.00;;;;;11.79;45.12;103210.56;5085458;28;45184;-89
2022/03/18 11:15:32;;;;;;;;;13.50;12.50;;;;;11.66;45.44;103184.16;5094814;27;45071;-83
2022/03/18 11:17:58;;;;;;;;;12.00;11.50;;;;;11.89;44.82;103210.41;5095125;28;45520;-82
2022/03/18 11:20:27;;;;;;;;;13.00;11.50;;;;;11.86;45.54;103208.47;5094454;28;45131;-91
2022/03/18 11:22:57;;;;;;;;;12.25;12.00;;;;;12.02;44.81;103207.81;5095008;28;44985;-85
2022/03/18 11:25:23;;;;;;;;;12.25;12.00;;;;;11.59;44.52;103128.44;5095919;27;45092;-82
2022/03/18 11:27:49;;;;;;;;;13.75;13.50;;;;;11.75;43.44;103148.81;5095245;27;45577;-86
2022/03/18 11:30:22;;;;;;;;;15.00;12.75;;;;;12.14;43.58;103208.63;5093865;28;45435;-89
2022/03/18 11:33:06;;;;;;;;;11.50;11.50;;;;;11.99;43.38;103172.44;5093810;27;45127;-85
2022/03/18 11:35:49;;;;;;;;;13.25;13.25;;;;;12.21;43.23;103201.13;5090109;28;45097;-82
2022/03/18 11:38:23;;;;;;;;;12.00;11.75;;;;;11.82;42.49;103130.06;5092442;27;45580;-89
2022/03/18 11:40:59;;;;;;;;;12.25;11.25;;;;;12.26;43.15;103195.34;5093884;28;45491;-87
2022/03/18 11:43:51;;;;;;;;;13.00;11.50;;;;;12.29;42.52;103178.84;5094126;28;45135;-91